createdAt,value
2023-04-20T00:01:11.592Z,4.43
2023-04-20T00:03:39.084Z,4.95
2023-04-20T00:06:06.471Z,4.45
2023-04-20T00:08:33.808Z,3.78
2023-04-20T00:11:01.153Z,4.53
2023-04-20T00:13:28.514Z,4.25
2023-04-20T00:15:55.820Z,3.92
2023-04-20T00:18:23.166Z,4.40
2023-04-20T00:20:50.860Z,3.88
2023-04-20T00:23:18.199Z,3.80
2023-04-20T00:25:45.512Z,4.60
2023-04-20T00:28:12.897Z,4.25
2023-04-20T00:30:40.219Z,4.22
2023-04-20T00:33:07.753Z,4.07
2023-04-20T00:35:35.149Z,4.32
2023-04-20T00:38:02.474Z,3.85
2023-04-20T00:40:29.871Z,4.45
2023-04-20T00:42:57.407Z,3.97
2023-04-20T00:45:24.795Z,4.30
2023-04-20T00:47:52.149Z,4.50
2023-04-20T00:50:19.500Z,4.53
2023-04-20T00:52:47.740Z,4.93
2023-04-20T00:55:15.047Z,4.57
2023-04-20T00:57:42.513Z,3.85
2023-04-20T01:00:11.120Z,5.65
2023-04-20T01:02:38.636Z,3.70
2023-04-20T01:05:06.282Z,3.88
2023-04-20T01:07:33.597Z,3.20
2023-04-20T01:10:00.984Z,3.42
2023-04-20T01:12:28.441Z,4.10
2023-04-20T01:14:55.789Z,3.78
2023-04-20T01:17:24.371Z,2.60
2023-04-20T01:19:52.024Z,2.58
2023-04-20T01:22:20.396Z,1.17
2023-04-20T01:24:47.851Z,1.10
2023-04-20T01:27:17.258Z,0.85
2023-04-20T01:29:45.092Z,0.80
2023-04-20T01:32:12.532Z,0.50
2023-04-20T01:34:40.150Z,0.70
2023-04-20T01:37:08.453Z,0.63
2023-04-20T01:39:36.902Z,0.80
2023-04-20T01:42:04.401Z,1.02
2023-04-20T01:44:31.723Z,0.90
2023-04-20T01:46:59.165Z,0.90
2023-04-20T01:49:26.901Z,0.70
2023-04-20T01:51:54.371Z,0.80
2023-04-20T01:54:23.611Z,0.90
2023-04-20T01:56:51.011Z,0.80
2023-04-20T01:59:18.531Z,0.65
2023-04-20T02:01:45.970Z,0.80
2023-04-20T02:04:13.437Z,0.70
2023-04-20T02:06:41.296Z,0.73
2023-04-20T02:09:09.604Z,0.70
2023-04-20T02:11:37.037Z,0.70
2023-04-20T02:14:04.424Z,0.80
2023-04-20T02:16:35.705Z,0.57
2023-04-20T02:19:03.288Z,0.52
2023-04-20T02:21:30.590Z,0.60
2023-04-20T02:23:58.078Z,0.60
2023-04-20T02:26:25.411Z,0.75
2023-04-20T02:28:53.016Z,0.60
2023-04-20T02:31:20.385Z,0.70
2023-04-20T02:33:50.007Z,0.70
2023-04-20T02:36:17.365Z,1.02
2023-04-20T02:38:44.768Z,0.60
2023-04-20T02:41:12.065Z,0.50
2023-04-20T02:43:39.886Z,1.15
2023-04-20T02:46:07.881Z,0.63
2023-04-20T02:48:35.234Z,0.80
2023-04-20T02:51:02.654Z,0.80
2023-04-20T02:53:29.982Z,0.80
2023-04-20T02:55:57.339Z,0.55
2023-04-20T02:58:25.310Z,0.60
2023-04-20T03:00:52.850Z,0.90
2023-04-20T03:03:21.529Z,0.93
2023-04-20T03:05:48.926Z,0.77
2023-04-20T03:08:16.604Z,1.20
2023-04-20T03:10:43.951Z,1.40
2023-04-20T03:13:11.264Z,1.27
2023-04-20T03:15:38.544Z,1.25
2023-04-20T03:18:05.982Z,1.30
2023-04-20T03:20:33.543Z,1.30
2023-04-20T03:23:00.964Z,1.75
2023-04-20T03:25:28.587Z,2.00
2023-04-20T03:27:56.098Z,2.08
2023-04-20T03:30:23.425Z,1.98
2023-04-20T03:32:50.809Z,1.80
2023-04-20T03:35:18.425Z,1.95
2023-04-20T03:37:45.844Z,2.22
2023-04-20T03:40:13.508Z,2.17
2023-04-20T03:42:40.874Z,2.05
2023-04-20T03:45:08.466Z,1.67
2023-04-20T03:47:35.842Z,2.13
2023-04-20T03:50:03.437Z,2.42
2023-04-20T03:52:30.792Z,2.38
2023-04-20T03:54:58.160Z,2.13
2023-04-20T03:57:25.595Z,1.98
2023-04-20T03:59:52.928Z,1.88
2023-04-20T04:02:22.885Z,2.40
2023-04-20T04:04:50.536Z,2.47
2023-04-20T04:07:18.042Z,2.17
2023-04-20T04:09:45.440Z,2.20
2023-04-20T04:12:13.974Z,2.17
2023-04-20T04:14:41.515Z,2.33
2023-04-20T04:17:09.128Z,2.08
2023-04-20T04:19:36.514Z,2.13
2023-04-20T04:22:03.875Z,2.58
2023-04-20T04:24:31.897Z,2.53
2023-04-20T04:26:59.232Z,2.17
2023-04-20T04:29:26.642Z,2.20
2023-04-20T04:31:54.521Z,2.53
2023-04-20T04:34:24.200Z,2.20
2023-04-20T04:36:51.534Z,2.45
2023-04-20T04:39:18.969Z,2.20
2023-04-20T04:41:46.492Z,2.10
2023-04-20T04:44:13.850Z,2.20
2023-04-20T04:46:41.822Z,2.15
2023-04-20T04:49:09.782Z,2.08
2023-04-20T04:51:37.108Z,1.70
2023-04-20T04:54:04.554Z,2.17
2023-04-20T04:56:32.559Z,1.88
2023-04-20T04:58:59.855Z,2.22
2023-04-20T05:01:27.264Z,2.17
2023-04-20T05:03:54.706Z,2.50
2023-04-20T05:06:22.228Z,2.42
2023-04-20T05:08:49.553Z,1.90
2023-04-20T05:11:16.895Z,1.98
2023-04-20T05:13:45.636Z,2.28
2023-04-20T05:16:13.023Z,2.00
2023-04-20T05:18:40.518Z,2.00
2023-04-20T05:21:07.896Z,1.98
2023-04-20T05:23:35.216Z,2.40
2023-04-20T05:26:02.581Z,1.73
2023-04-20T05:28:29.958Z,1.70
2023-04-20T05:30:57.344Z,2.10
2023-04-20T05:33:24.675Z,1.77
2023-04-20T05:35:52.043Z,2.20
2023-04-20T05:38:19.419Z,1.88
2023-04-20T05:40:47.104Z,1.63
2023-04-20T05:43:14.436Z,1.83
2023-04-20T05:45:41.793Z,2.28
2023-04-20T05:48:09.163Z,1.70
2023-04-20T05:50:36.488Z,1.80
2023-04-20T05:53:03.841Z,1.75
2023-04-20T05:55:31.244Z,2.10
2023-04-20T05:57:58.598Z,1.88
2023-04-20T06:00:26.431Z,1.90
2023-04-20T06:02:55.199Z,2.10
2023-04-20T06:05:22.870Z,2.00
2023-04-20T06:07:50.325Z,2.03
2023-04-20T06:10:17.623Z,1.90
2023-04-20T06:12:44.954Z,2.10
2023-04-20T06:15:12.414Z,2.25
2023-04-20T06:17:41.371Z,2.10
2023-04-20T06:20:12.295Z,1.98
2023-04-20T06:22:44.568Z,2.30
2023-04-20T06:25:12.359Z,2.33
2023-04-20T06:27:39.778Z,2.00
2023-04-20T06:30:07.397Z,2.35
2023-04-20T06:32:34.770Z,4.00
2023-04-20T06:35:02.238Z,3.08
2023-04-20T06:37:29.582Z,2.20
2023-04-20T06:39:56.951Z,2.00
2023-04-20T06:42:24.260Z,2.38
2023-04-20T06:44:51.732Z,2.35
2023-04-20T06:47:19.160Z,2.95
2023-04-20T06:49:46.598Z,2.63
2023-04-20T06:52:14.042Z,2.85
2023-04-20T06:54:41.406Z,2.58
2023-04-20T06:57:08.712Z,2.22
2023-04-20T06:59:36.045Z,3.22
2023-04-20T07:02:03.441Z,3.63
2023-04-20T07:04:31.099Z,2.50
2023-04-20T07:06:58.518Z,2.92
2023-04-20T07:09:25.989Z,2.63
2023-04-20T07:11:53.441Z,1.58
2023-04-20T07:14:20.975Z,2.30
2023-04-20T07:16:48.521Z,2.45
2023-04-20T07:19:16.102Z,2.28
2023-04-20T07:21:43.604Z,2.10
2023-04-20T07:24:10.913Z,2.40
2023-04-20T07:26:38.248Z,2.50
2023-04-20T07:29:05.654Z,2.63
2023-04-20T07:31:35.194Z,2.88
2023-04-20T07:34:02.825Z,2.90
2023-04-20T07:36:30.589Z,2.80
2023-04-20T07:38:57.929Z,3.08
2023-04-20T07:41:25.322Z,3.20
2023-04-20T07:43:52.679Z,2.97
2023-04-20T07:46:23.838Z,3.45
2023-04-20T07:48:51.269Z,3.00
2023-04-20T07:51:18.672Z,3.13
2023-04-20T07:53:46.074Z,2.92
2023-04-20T07:56:13.473Z,3.47
2023-04-20T07:58:41.260Z,4.20
2023-04-20T08:01:08.623Z,3.88
2023-04-20T08:03:36.400Z,4.70
2023-04-20T08:06:04.116Z,4.88
2023-04-20T08:08:31.705Z,3.92
2023-04-20T08:10:59.316Z,3.50
2023-04-20T08:13:27.769Z,4.13
2023-04-20T08:15:55.268Z,4.15
2023-04-20T08:18:22.681Z,4.47
2023-04-20T08:20:51.377Z,4.38
2023-04-20T08:23:18.854Z,3.90
2023-04-20T08:25:46.247Z,3.85
2023-04-20T08:28:24.178Z,3.88
2023-04-20T08:31:00.212Z,4.28
2023-04-20T08:33:27.782Z,3.90
2023-04-20T08:35:55.162Z,4.70
2023-04-20T08:38:32.916Z,4.53
2023-04-20T08:41:01.391Z,4.60
2023-04-20T08:43:28.867Z,5.40
2023-04-20T08:45:59.945Z,4.97
2023-04-20T08:48:28.971Z,4.80
2023-04-20T08:50:56.535Z,4.68
2023-04-20T08:53:23.922Z,4.00
2023-04-20T08:55:51.499Z,3.92
2023-04-20T08:58:18.905Z,4.00
2023-04-20T09:00:49.925Z,4.13
2023-04-20T09:03:24.765Z,4.45
2023-04-20T09:05:52.298Z,3.83
2023-04-20T09:08:19.636Z,5.38
2023-04-20T09:10:47.342Z,4.30
2023-04-20T09:13:24.137Z,4.70
2023-04-20T09:15:51.512Z,3.72
2023-04-20T09:18:19.043Z,4.72
2023-04-20T09:20:46.427Z,4.65
2023-04-20T09:23:24.395Z,5.35
2023-04-20T09:25:53.338Z,5.75
2023-04-20T09:28:21.035Z,5.82
2023-04-20T09:30:51.821Z,5.85
2023-04-20T09:33:19.760Z,6.35
2023-04-20T09:35:47.417Z,7.30
2023-04-20T09:38:18.288Z,6.05
2023-04-20T09:40:45.878Z,6.30
2023-04-20T09:43:20.158Z,5.50
2023-04-20T09:45:47.787Z,7.33
2023-04-20T09:48:19.273Z,5.93
2023-04-20T09:50:49.734Z,6.10
2023-04-20T09:53:18.693Z,4.53
2023-04-20T09:55:49.891Z,5.18
2023-04-20T09:58:21.256Z,4.60
2023-04-20T10:00:49.413Z,3.53
2023-04-20T10:03:18.775Z,3.85
2023-04-20T10:05:46.479Z,3.78
2023-04-20T10:08:13.899Z,2.42
2023-04-20T10:10:45.036Z,4.63
2023-04-20T10:13:12.628Z,3.60
2023-04-20T10:15:41.229Z,2.58
2023-04-20T10:18:20.944Z,3.63
2023-04-20T10:20:48.559Z,3.60
2023-04-20T10:23:16.657Z,3.40
2023-04-20T10:25:47.606Z,2.85
2023-04-20T10:28:15.028Z,3.17
2023-04-20T10:30:51.441Z,3.20
2023-04-20T10:33:18.925Z,3.13
2023-04-20T10:35:55.016Z,3.38
2023-04-20T10:38:48.951Z,2.88
2023-04-20T10:41:16.256Z,2.70
2023-04-20T10:43:43.807Z,2.30
2023-04-20T10:46:18.157Z,2.53
2023-04-20T10:48:55.973Z,2.40
2023-04-20T10:51:23.389Z,2.80
2023-04-20T10:54:06.183Z,2.50
2023-04-20T10:56:45.886Z,2.42
2023-04-20T10:59:14.574Z,2.40
2023-04-20T11:01:42.246Z,3.10
2023-04-20T11:04:14.461Z,2.83
2023-04-20T11:06:48.429Z,3.13
2023-04-20T11:09:23.888Z,2.78
2023-04-20T11:14:18.814Z,2.72
2023-04-20T11:16:52.609Z,2.85
2023-04-20T11:19:24.077Z,2.75
2023-04-20T11:21:51.443Z,2.22
2023-04-20T11:24:22.444Z,2.60
2023-04-20T11:26:50.658Z,2.50
2023-04-20T11:29:36.076Z,2.30
2023-04-20T11:32:04.932Z,2.50
2023-04-20T11:34:32.649Z,2.00
2023-04-20T11:37:07.611Z,2.72
2023-04-20T11:39:35.076Z,3.08
2023-04-20T11:42:02.489Z,2.65
2023-04-20T11:44:29.835Z,2.60
2023-04-20T11:46:57.803Z,2.80
2023-04-20T11:49:26.305Z,2.63
2023-04-20T11:51:53.640Z,3.10
2023-04-20T11:54:22.014Z,3.00
2023-04-20T11:56:49.783Z,2.70
2023-04-20T11:59:20.643Z,2.92
2023-04-20T12:01:48.523Z,2.38
2023-04-20T12:04:16.480Z,3.25
2023-04-20T12:06:44.391Z,2.58
2023-04-20T12:09:11.702Z,2.75
2023-04-20T12:11:39.040Z,2.88
2023-04-20T12:14:06.504Z,2.97
2023-04-20T12:16:33.839Z,2.83
2023-04-20T12:19:01.204Z,2.58
2023-04-20T12:21:28.566Z,2.92
2023-04-20T12:23:56.975Z,3.47
2023-04-20T12:26:31.962Z,3.00
2023-04-20T12:29:05.059Z,3.20
2023-04-20T12:31:32.452Z,3.78
2023-04-20T12:33:59.899Z,3.22
2023-04-20T12:36:28.256Z,3.72
2023-04-20T12:38:56.238Z,3.58
2023-04-20T12:41:23.865Z,3.80
2023-04-20T12:43:51.626Z,3.90
2023-04-20T12:46:19.251Z,4.18
2023-04-20T12:48:46.683Z,4.10
2023-04-20T12:51:15.490Z,4.32
2023-04-20T12:53:43.019Z,3.92
2023-04-20T12:56:10.505Z,4.70
2023-04-20T12:58:38.065Z,3.70
2023-04-20T13:01:05.398Z,4.65
2023-04-20T13:03:32.995Z,4.75
2023-04-20T13:06:02.024Z,4.47
2023-04-20T13:08:29.354Z,4.70
2023-04-20T13:10:56.667Z,4.90
2023-04-20T13:13:24.028Z,4.28
2023-04-20T13:15:54.478Z,4.68
2023-04-20T13:18:24.329Z,2.80
2023-04-20T13:20:51.779Z,4.78
2023-04-20T13:23:19.138Z,5.00
2023-04-20T13:25:46.492Z,5.43
2023-04-20T13:28:14.774Z,4.97
2023-04-20T13:30:42.331Z,5.90
2023-04-20T13:33:09.655Z,6.25
2023-04-20T13:35:37.463Z,5.63
2023-04-20T13:38:05.708Z,6.10
2023-04-20T13:40:33.192Z,4.88
2023-04-20T13:43:00.515Z,5.57
2023-04-20T13:45:28.311Z,5.00
2023-04-20T13:47:55.717Z,6.13
2023-04-20T13:50:23.076Z,6.22
2023-04-20T13:52:50.605Z,4.93
2023-04-20T13:55:20.562Z,6.20
2023-04-20T13:57:48.058Z,6.90
2023-04-20T14:00:15.583Z,7.93
2023-04-20T14:02:43.064Z,7.80
2023-04-20T14:05:10.753Z,8.27
2023-04-20T14:07:38.346Z,8.52
2023-04-20T14:10:06.140Z,8.40
2023-04-20T14:12:36.182Z,8.60
2023-04-20T14:15:04.409Z,8.50
2023-04-20T14:17:31.924Z,8.30
2023-04-20T14:19:59.563Z,8.48
2023-04-20T14:22:27.026Z,6.45
2023-04-20T14:24:54.336Z,8.82
2023-04-20T14:27:21.658Z,9.07
2023-04-20T14:29:48.987Z,8.85
2023-04-20T14:32:16.339Z,9.82
2023-04-20T14:34:43.681Z,8.63
2023-04-20T14:37:11.003Z,8.27
2023-04-20T14:39:38.386Z,8.45
2023-04-20T14:42:05.732Z,9.30
2023-04-20T14:44:33.135Z,8.32
2023-04-20T14:47:02.111Z,9.88
2023-04-20T14:49:29.845Z,9.32
2023-04-20T14:51:57.177Z,9.52
2023-04-20T14:54:24.516Z,10.40
2023-04-20T14:56:52.090Z,10.10
2023-04-20T14:59:19.646Z,8.30
2023-04-20T15:01:59.134Z,8.10
2023-04-20T15:04:30.297Z,7.80
2023-04-20T15:06:57.874Z,8.13
2023-04-20T15:09:25.206Z,7.68
2023-04-20T15:11:52.532Z,7.55
2023-04-20T15:14:19.894Z,7.53
2023-04-20T15:16:47.494Z,7.97
2023-04-20T15:19:14.857Z,8.43
2023-04-20T15:21:42.789Z,7.45
2023-04-20T15:24:11.731Z,9.18
2023-04-20T15:26:39.096Z,7.63
2023-04-20T15:29:06.592Z,7.22
2023-04-20T15:31:33.976Z,8.57
2023-04-20T15:34:01.588Z,6.65
2023-04-20T15:36:29.050Z,7.40
2023-04-20T15:38:57.840Z,7.32
2023-04-20T15:41:25.676Z,7.32
2023-04-20T15:43:53.017Z,6.47
2023-04-20T15:46:24.449Z,7.13
2023-04-20T15:48:51.923Z,5.38
2023-04-20T15:51:20.329Z,8.23
2023-04-20T15:53:51.444Z,8.45
2023-04-20T15:56:18.950Z,8.70
2023-04-20T15:58:46.816Z,8.80
2023-04-20T16:01:14.185Z,9.60
2023-04-20T16:03:43.894Z,8.75
2023-04-20T16:06:12.856Z,10.30
2023-04-20T16:08:40.269Z,9.60
2023-04-20T16:11:07.722Z,9.27
2023-04-20T16:13:36.770Z,8.52
2023-04-20T16:16:04.323Z,10.32
2023-04-20T16:18:33.113Z,10.55
2023-04-20T16:21:00.823Z,9.50
2023-04-20T16:23:28.293Z,11.20
2023-04-20T16:25:56.098Z,10.98
2023-04-20T16:28:23.524Z,10.73
2023-04-20T16:30:51.104Z,11.43
2023-04-20T16:33:18.865Z,7.90
2023-04-20T16:35:46.455Z,12.75
2023-04-20T16:38:13.785Z,12.43
2023-04-20T16:40:42.785Z,13.10
2023-04-20T16:43:10.325Z,12.38
2023-04-20T16:45:39.263Z,13.13
2023-04-20T16:48:06.765Z,12.45
2023-04-20T16:50:35.516Z,12.93
2023-04-20T16:53:03.320Z,12.82
2023-04-20T16:55:32.187Z,13.23
2023-04-20T16:58:02.423Z,13.18
2023-04-20T17:00:30.481Z,12.88
2023-04-20T17:02:58.256Z,12.90
2023-04-20T17:05:25.829Z,13.65
2023-04-20T17:07:53.305Z,14.20
2023-04-20T17:10:20.888Z,14.35
2023-04-20T17:12:48.228Z,13.57
2023-04-20T17:15:15.833Z,14.18
2023-04-20T17:17:43.299Z,13.23
2023-04-20T17:20:10.911Z,14.48
2023-04-20T17:22:38.261Z,12.70
2023-04-20T17:25:07.424Z,14.68
2023-04-20T17:27:35.216Z,14.77
2023-04-20T17:30:02.689Z,14.40
2023-04-20T17:32:30.190Z,14.48
2023-04-20T17:34:57.654Z,14.95
2023-04-20T17:37:25.018Z,14.48
2023-04-20T17:39:52.340Z,14.68
2023-04-20T17:42:19.692Z,13.80
2023-04-20T17:44:47.085Z,14.68
2023-04-20T17:47:15.105Z,13.32
2023-04-20T17:49:43.572Z,13.88
2023-04-20T17:52:12.757Z,15.52
2023-04-20T17:54:40.111Z,14.10
2023-04-20T17:57:09.077Z,14.80
2023-04-20T17:59:36.407Z,14.20
2023-04-20T18:02:03.905Z,13.73
2023-04-20T18:04:31.710Z,14.10
2023-04-20T18:06:59.190Z,13.48
2023-04-20T18:09:26.585Z,14.80
2023-04-20T18:11:54.130Z,14.68
2023-04-20T18:14:21.520Z,15.18
2023-04-20T18:16:52.096Z,14.75
2023-04-20T18:19:19.580Z,15.20
2023-04-20T18:21:47.037Z,14.80
2023-04-20T18:24:14.452Z,14.50
2023-04-20T18:26:41.769Z,15.65
2023-04-20T18:29:09.080Z,16.15
2023-04-20T18:31:36.604Z,17.15
2023-04-20T18:34:04.286Z,16.25
2023-04-20T18:36:32.353Z,16.13
2023-04-20T18:38:59.656Z,17.60
2023-04-20T18:41:27.947Z,13.40
2023-04-20T18:43:56.550Z,17.13
2023-04-20T18:46:24.155Z,16.88
2023-04-20T18:48:51.511Z,17.90
2023-04-20T18:51:18.976Z,17.80
2023-04-20T18:53:46.585Z,15.77
2023-04-20T18:56:13.920Z,16.23
2023-04-20T18:58:41.759Z,16.98
2023-04-20T19:01:09.157Z,16.75
2023-04-20T19:03:36.682Z,15.30
2023-04-20T19:06:04.103Z,17.38
2023-04-20T19:08:32.454Z,17.40
2023-04-20T19:11:00.754Z,17.55
2023-04-20T19:13:28.117Z,17.50
2023-04-20T19:15:57.844Z,17.02
2023-04-20T19:18:28.058Z,14.30
2023-04-20T19:20:55.594Z,17.50
2023-04-20T19:23:23.005Z,15.65
2023-04-20T19:25:50.367Z,15.30
2023-04-20T19:28:17.737Z,17.30
2023-04-20T19:30:45.285Z,17.55
2023-04-20T19:33:12.656Z,15.25
2023-04-20T19:35:41.961Z,18.27
2023-04-20T19:38:09.308Z,17.05
2023-04-20T19:40:36.673Z,19.38
2023-04-20T19:43:04.075Z,19.70
2023-04-20T19:45:31.391Z,19.85
2023-04-20T19:47:58.797Z,16.67
2023-04-20T19:50:26.290Z,19.50
2023-04-20T19:52:53.639Z,17.73
2023-04-20T19:55:20.980Z,17.25
2023-04-20T19:57:48.309Z,18.27
2023-04-20T20:00:15.769Z,17.35
2023-04-20T20:02:43.498Z,17.48
2023-04-20T20:05:11.211Z,16.45
2023-04-20T20:07:38.653Z,14.93
2023-04-20T20:10:06.620Z,16.15
2023-04-20T20:12:34.039Z,16.52
2023-04-20T20:15:01.469Z,15.07
2023-04-20T20:17:28.898Z,15.77
2023-04-20T20:19:56.428Z,14.52
2023-04-20T20:22:23.799Z,14.90
2023-04-20T20:24:54.217Z,16.33
2023-04-20T20:27:21.735Z,14.48
2023-04-20T20:29:49.270Z,12.27
2023-04-20T20:32:16.683Z,16.38
2023-04-20T20:34:44.058Z,16.13
2023-04-20T20:37:11.424Z,16.38
2023-04-20T20:39:38.734Z,14.52
2023-04-20T20:42:08.494Z,15.50
2023-04-20T20:44:39.127Z,15.98
2023-04-20T20:47:06.937Z,16.77
2023-04-20T20:49:34.323Z,16.80
2023-04-20T20:52:02.538Z,16.75
2023-04-20T20:54:29.901Z,17.30
2023-04-20T20:56:57.808Z,17.15
2023-04-20T20:59:25.158Z,17.60
2023-04-20T21:01:52.517Z,16.48
2023-04-20T21:04:19.888Z,17.50
2023-04-20T21:06:47.265Z,16.30
2023-04-20T21:09:15.667Z,17.15
2023-04-20T21:11:43.013Z,17.65
2023-04-20T21:14:10.855Z,16.92
2023-04-20T21:16:38.326Z,16.50
2023-04-20T21:19:05.984Z,17.92
2023-04-20T21:21:34.179Z,18.13
2023-04-20T21:24:01.508Z,17.85
2023-04-20T21:26:34.996Z,18.63
2023-04-20T21:29:05.229Z,18.70
2023-04-20T21:31:33.144Z,16.67
2023-04-20T21:34:00.988Z,18.48
2023-04-20T21:36:28.344Z,18.48
2023-04-20T21:38:55.910Z,18.83
2023-04-20T21:41:23.282Z,17.67
2023-04-20T21:43:52.709Z,18.20
2023-04-20T21:46:20.123Z,18.25
2023-04-20T21:48:47.516Z,19.02
2023-04-20T21:51:18.889Z,20.15
2023-04-20T21:53:46.334Z,18.83
2023-04-20T21:56:15.097Z,19.05
2023-04-20T21:58:42.512Z,17.15
2023-04-20T22:01:10.053Z,19.02
2023-04-20T22:03:38.075Z,18.38
2023-04-20T22:06:05.916Z,17.92
2023-04-20T22:08:33.449Z,17.02
2023-04-20T22:11:00.812Z,17.48
2023-04-20T22:13:28.198Z,18.88
2023-04-20T22:15:55.787Z,17.88
2023-04-20T22:18:23.142Z,19.00
2023-04-20T22:20:51.582Z,17.50
2023-04-20T22:23:19.068Z,18.38
2023-04-20T22:25:46.431Z,19.92
2023-04-20T22:28:13.757Z,17.48
2023-04-20T22:30:42.597Z,17.65
2023-04-20T22:33:09.996Z,16.30
2023-04-20T22:35:37.378Z,17.05
2023-04-20T22:38:04.873Z,17.63
2023-04-20T22:40:32.320Z,11.05
2023-04-20T22:42:59.670Z,15.65
2023-04-20T22:45:27.048Z,15.68
2023-04-20T22:47:57.058Z,16.88
2023-04-20T22:50:24.505Z,17.40
2023-04-20T22:52:52.168Z,16.13
2023-04-20T22:55:19.698Z,16.38
2023-04-20T22:57:47.095Z,16.40
2023-04-20T23:00:14.735Z,15.23
2023-04-20T23:02:42.336Z,16.02
2023-04-20T23:05:10.199Z,15.20
2023-04-20T23:07:37.767Z,14.60
2023-04-20T23:10:06.271Z,15.05
2023-04-20T23:12:33.579Z,15.30
2023-04-20T23:15:01.522Z,15.57
2023-04-20T23:17:29.412Z,14.05
2023-04-20T23:19:56.877Z,13.40
2023-04-20T23:22:24.310Z,14.23
2023-04-20T23:24:51.748Z,13.30
2023-04-20T23:27:19.105Z,13.90
2023-04-20T23:29:46.698Z,13.57
2023-04-20T23:32:14.063Z,13.15
2023-04-20T23:34:41.428Z,13.85
2023-04-20T23:37:08.723Z,13.82
2023-04-20T23:39:39.016Z,14.10
2023-04-20T23:42:06.473Z,11.35
2023-04-20T23:44:33.833Z,14.98
2023-04-20T23:47:01.226Z,13.02
2023-04-20T23:49:28.562Z,13.25
2023-04-20T23:51:55.874Z,14.02
2023-04-20T23:54:23.215Z,14.82
2023-04-20T23:56:50.667Z,13.90
2023-04-20T23:59:19.726Z,14.32
